Time;durP1;ratioP1;P1;durP2;ratioP2;P2;SDS_P1;SDS_P2;PMS_P1;PMS_P2;Temp;Humidity;BMP_temperature;BMP_pressure;BME280_temperature;BME280_humidity;BME280_pressure;Samples;Min_cycle;Max_cycle;Signal;HPM_P1;HPM_P2
2022/10/15 00:00:39;;;;;;;101.57;27.07;;;;;;;;;;1831676;78;26757;-79
2022/10/15 00:03:07;;;;;;;162.63;30.17;;;;;;;;;;1831623;78;26268;-79
2022/10/15 00:05:37;;;;;;;33.10;22.83;;;;;;;;;;1831814;78;26214;-79
2022/10/15 00:08:06;;;;;;;45.90;22.40;;;;;;;;;;1803685;78;26234;-79
2022/10/15 00:10:34;;;;;;;136.40;27.97;;;;;;;;;;1831688;78;26226;-79
2022/10/15 00:13:03;;;;;;;92.77;26.63;;;;;;;;;;1831826;78;26273;-79
2022/10/15 00:15:35;;;;;;;104.33;25.77;;;;;;;;;;1831803;78;26211;-79
2022/10/15 00:18:07;;;;;;;104.60;27.90;;;;;;;;;;1831699;78;26226;-79
2022/10/15 00:20:35;;;;;;;73.73;26.13;;;;;;;;;;1831612;78;26284;-79
2022/10/15 00:23:05;;;;;;;76.77;26.43;;;;;;;;;;1832033;78;26222;-79
2022/10/15 00:25:33;;;;;;;34.13;22.17;;;;;;;;;;1815666;78;26836;-79
2022/10/15 00:28:03;;;;;;;36.60;23.00;;;;;;;;;;1789488;79;26799;-79
2022/10/15 00:30:32;;;;;;;26.57;22.67;;;;;;;;;;1790349;79;26212;-79
2022/10/15 00:33:00;;;;;;;26.60;23.07;;;;;;;;;;1831779;78;26968;-78
2022/10/15 00:35:30;;;;;;;59.10;27.70;;;;;;;;;;1791074;79;26709;-79
2022/10/15 00:38:00;;;;;;;30.77;23.87;;;;;;;;;;1763500;79;26282;-79
2022/10/15 00:40:28;;;;;;;35.97;24.90;;;;;;;;;;1831534;78;26791;-79
2022/10/15 00:42:57;;;;;;;45.00;27.67;;;;;;;;;;1832183;78;26672;-79
2022/10/15 00:45:25;;;;;;;35.27;26.10;;;;;;;;;;1819126;79;26223;-79
2022/10/15 00:47:54;;;;;;;34.03;25.97;;;;;;;;;;1778299;78;26445;-79
2022/10/15 00:50:24;;;;;;;28.40;24.47;;;;;;;;;;1803407;78;26818;-78
2022/10/15 00:52:57;;;;;;;26.07;23.57;;;;;;;;;;1803461;78;26230;-79
2022/10/15 00:55:27;;;;;;;35.30;26.40;;;;;;;;;;1803285;78;26261;-79
2022/10/15 00:57:57;;;;;;;34.43;25.37;;;;;;;;;;1831658;78;26217;-79
2022/10/15 01:00:26;;;;;;;33.40;25.53;;;;;;;;;;1803491;78;26309;-79
2022/10/15 01:02:54;;;;;;;37.83;27.00;;;;;;;;;;1831588;78;26513;-79
2022/10/15 01:05:24;;;;;;;27.73;24.87;;;;;;;;;;1803292;78;26223;-79
2022/10/15 01:07:52;;;;;;;36.27;26.30;;;;;;;;;;1803809;78;26323;-79
2022/10/15 01:10:21;;;;;;;34.33;26.53;;;;;;;;;;1831787;78;26210;-78
2022/10/15 01:12:54;;;;;;;37.03;27.33;;;;;;;;;;1803509;78;26234;-79
2022/10/15 01:15:24;;;;;;;35.53;27.37;;;;;;;;;;1820763;78;26293;-79
2022/10/15 01:17:55;;;;;;;39.33;27.60;;;;;;;;;;1815802;78;26226;-79
2022/10/15 01:20:51;;;;;;;38.43;28.00;;;;;;;;;;1802083;78;26268;-79
2022/10/15 01:23:32;;;;;;;28.07;25.07;;;;;;;;;;1803713;78;26277;-79
2022/10/15 01:26:04;;;;;;;33.43;26.73;;;;;;;;;;1803496;78;26214;-79
2022/10/15 01:28:34;;;;;;;32.17;27.00;;;;;;;;;;1820761;78;26807;-79
2022/10/15 01:31:04;;;;;;;30.80;26.27;;;;;;;;;;1818327;79;26793;-79
2022/10/15 01:33:37;;;;;;;40.00;28.80;;;;;;;;;;1790975;78;26356;-79
2022/10/15 01:36:09;;;;;;;42.93;28.70;;;;;;;;;;1831571;78;26214;-79
2022/10/15 01:38:41;;;;;;;33.70;26.67;;;;;;;;;;1831608;78;26292;-79
2022/10/15 01:41:11;;;;;;;44.70;28.73;;;;;;;;;;1802941;78;26226;-78
2022/10/15 01:43:41;;;;;;;35.33;26.40;;;;;;;;;;1831702;78;26560;-79
2022/10/15 01:46:11;;;;;;;42.67;27.60;;;;;;;;;;1803113;78;26210;-79
2022/10/15 01:48:40;;;;;;;34.23;26.07;;;;;;;;;;1813963;78;26293;-79
2022/10/15 01:51:10;;;;;;;30.57;24.90;;;;;;;;;;1789067;79;26312;-79
2022/10/15 01:53:39;;;;;;;31.87;24.50;;;;;;;;;;1820189;77;26216;-79
2022/10/15 01:56:09;;;;;;;35.57;25.17;;;;;;;;;;1830782;78;27281;-78
2022/10/15 01:58:40;;;;;;;30.27;24.77;;;;;;;;;;1789094;79;26231;-80
2022/10/15 02:01:08;;;;;;;31.40;25.27;;;;;;;;;;1830764;78;26727;-79
2022/10/15 02:03:47;;;;;;;32.47;25.23;;;;;;;;;;1748794;78;27038;-79
2022/10/15 02:06:18;;;;;;;36.67;26.60;;;;;;;;;;1802608;78;26218;-79
2022/10/15 02:08:48;;;;;;;36.40;26.80;;;;;;;;;;1831085;78;26241;-78
2022/10/15 02:11:17;;;;;;;40.17;27.20;;;;;;;;;;1819838;77;26780;-79
2022/10/15 02:13:48;;;;;;;40.33;27.70;;;;;;;;;;1830869;78;26680;-79
2022/10/15 02:16:18;;;;;;;30.70;25.17;;;;;;;;;;1778687;78;26211;-79
2022/10/15 02:18:48;;;;;;;38.40;26.87;;;;;;;;;;1820485;77;26648;-79
2022/10/15 02:21:18;;;;;;;35.03;26.50;;;;;;;;;;1818797;77;27053;-79
2022/10/15 02:23:48;;;;;;;24.50;22.20;;;;;;;;;;1818839;78;26207;-79
2022/10/15 02:26:18;;;;;;;30.47;25.07;;;;;;;;;;1820213;79;26227;-79
2022/10/15 02:28:47;;;;;;;26.07;23.27;;;;;;;;;;1787554;79;26287;-79
2022/10/15 02:31:18;;;;;;;26.30;23.23;;;;;;;;;;1829168;77;26375;-79
2022/10/15 02:33:47;;;;;;;29.80;24.17;;;;;;;;;;1829243;78;26295;-79
2022/10/15 02:36:18;;;;;;;32.70;25.40;;;;;;;;;;1829264;78;26528;-79
2022/10/15 02:38:47;;;;;;;33.03;24.77;;;;;;;;;;1829365;78;27008;-79
2022/10/15 02:41:15;;;;;;;28.93;24.53;;;;;;;;;;1829045;78;26347;-79
2022/10/15 02:43:44;;;;;;;32.10;26.80;;;;;;;;;;1800494;78;26269;-79
2022/10/15 02:46:13;;;;;;;46.90;29.33;;;;;;;;;;1776655;78;26250;-79
2022/10/15 02:48:41;;;;;;;31.40;26.37;;;;;;;;;;1828966;78;26265;-79
2022/10/15 02:51:10;;;;;;;31.23;26.73;;;;;;;;;;1800870;78;26335;-79
2022/10/15 02:53:39;;;;;;;44.20;29.07;;;;;;;;;;1829215;78;26266;-79
2022/10/15 02:56:08;;;;;;;43.70;30.00;;;;;;;;;;1800410;78;26628;-79
2022/10/15 02:58:36;;;;;;;35.77;27.97;;;;;;;;;;1800508;78;26343;-79
2022/10/15 03:01:06;;;;;;;47.80;28.63;;;;;;;;;;1800691;78;26367;-79
2022/10/15 03:03:34;;;;;;;39.63;27.83;;;;;;;;;;1829301;78;26878;-79
2022/10/15 03:06:04;;;;;;;35.57;25.47;;;;;;;;;;1799888;78;26270;-79
2022/10/15 03:08:33;;;;;;;31.83;26.00;;;;;;;;;;1831690;77;26731;-79
2022/10/15 03:11:03;;;;;;;28.97;23.67;;;;;;;;;;1791077;79;26870;-79
2022/10/15 03:13:31;;;;;;;24.30;21.70;;;;;;;;;;1831515;78;26233;-79
2022/10/15 03:16:02;;;;;;;29.20;22.00;;;;;;;;;;1815730;78;26222;-79
2022/10/15 03:18:30;;;;;;;21.47;19.23;;;;;;;;;;1819487;79;26233;-79
2022/10/15 03:20:59;;;;;;;21.77;17.63;;;;;;;;;;1802933;78;26803;-78
2022/10/15 03:23:28;;;;;;;21.90;17.43;;;;;;;;;;1831608;78;26234;-79
2022/10/15 03:25:57;;;;;;;17.97;16.13;;;;;;;;;;1831717;78;26771;-79
2022/10/15 03:28:26;;;;;;;20.63;17.10;;;;;;;;;;1831505;78;26230;-79
2022/10/15 03:30:55;;;;;;;20.73;17.63;;;;;;;;;;1803663;78;26301;-79
2022/10/15 03:33:24;;;;;;;21.50;18.17;;;;;;;;;;1831577;78;26229;-78
2022/10/15 03:35:53;;;;;;;20.60;18.57;;;;;;;;;;1803704;78;26825;-78
2022/10/15 03:38:22;;;;;;;21.20;19.00;;;;;;;;;;1791330;79;26246;-79
2022/10/15 03:40:50;;;;;;;20.73;18.53;;;;;;;;;;1831605;78;26287;-79
2022/10/15 03:43:19;;;;;;;21.47;19.03;;;;;;;;;;1803816;78;26680;-78
2022/10/15 03:45:48;;;;;;;25.20;19.23;;;;;;;;;;1803351;78;26234;-79
2022/10/15 03:48:17;;;;;;;20.83;18.73;;;;;;;;;;1803185;78;26218;-78
2022/10/15 03:50:46;;;;;;;24.07;20.10;;;;;;;;;;1803653;78;26704;-79
2022/10/15 03:53:14;;;;;;;21.03;18.73;;;;;;;;;;1803252;78;26760;-79
2022/10/15 03:55:46;;;;;;;19.17;17.30;;;;;;;;;;1803586;78;26230;-79
2022/10/15 03:58:14;;;;;;;22.97;17.57;;;;;;;;;;1803612;78;26284;-79
2022/10/15 04:00:43;;;;;;;19.47;17.57;;;;;;;;;;1772422;79;615280;-79
2022/10/15 04:03:11;;;;;;;23.20;18.30;;;;;;;;;;1738316;81;26897;-79
2022/10/15 04:05:40;;;;;;;22.97;18.90;;;;;;;;;;1775764;79;26228;-79
2022/10/15 04:08:08;;;;;;;20.97;18.70;;;;;;;;;;1801729;79;26236;-79
2022/10/15 04:10:37;;;;;;;20.13;17.97;;;;;;;;;;1774560;79;26242;-79
2022/10/15 04:13:06;;;;;;;22.40;17.97;;;;;;;;;;1802321;79;26251;-79
2022/10/15 04:15:37;;;;;;;19.53;17.43;;;;;;;;;;1776577;79;26615;-79
2022/10/15 04:18:06;;;;;;;20.43;18.13;;;;;;;;;;1771108;81;26289;-79
2022/10/15 04:20:35;;;;;;;20.87;18.70;;;;;;;;;;1802432;79;26243;-79
2022/10/15 04:23:03;;;;;;;21.37;18.83;;;;;;;;;;1771122;81;26237;-79
2022/10/15 04:25:32;;;;;;;20.50;18.30;;;;;;;;;;1775977;79;26321;-79
2022/10/15 04:28:01;;;;;;;20.10;17.93;;;;;;;;;;1767884;81;26218;-79
2022/10/15 04:30:30;;;;;;;23.23;19.23;;;;;;;;;;1722337;81;26316;-79
2022/10/15 04:32:58;;;;;;;24.30;18.40;;;;;;;;;;1802371;79;26893;-79
2022/10/15 04:35:28;;;;;;;22.97;19.77;;;;;;;;;;1768218;80;26743;-79
2022/10/15 04:37:58;;;;;;;22.27;18.33;;;;;;;;;;1745947;81;26797;-78
2022/10/15 04:40:27;;;;;;;20.67;18.47;;;;;;;;;;1720798;81;26297;-79
2022/10/15 04:42:56;;;;;;;20.87;18.83;;;;;;;;;;1802275;79;26709;-79
2022/10/15 04:45:25;;;;;;;20.60;18.67;;;;;;;;;;1746639;81;26316;-78
2022/10/15 04:47:53;;;;;;;20.93;18.67;;;;;;;;;;1800627;79;26231;-79
2022/10/15 04:50:22;;;;;;;20.97;18.33;;;;;;;;;;1771008;81;26305;-79
2022/10/15 04:52:51;;;;;;;19.77;17.73;;;;;;;;;;1802477;79;26231;-79
2022/10/15 04:55:19;;;;;;;23.40;17.23;;;;;;;;;;1770962;81;26234;-79
2022/10/15 04:57:48;;;;;;;17.33;15.70;;;;;;;;;;1743638;81;26241;-79
2022/10/15 05:00:17;;;;;;;20.47;14.83;;;;;;;;;;1802299;79;26286;-79
2022/10/15 05:02:47;;;;;;;19.50;15.83;;;;;;;;;;1767601;81;26304;-80
2022/10/15 05:05:16;;;;;;;18.90;16.93;;;;;;;;;;1802396;79;26239;-80
2022/10/15 05:07:44;;;;;;;23.30;16.33;;;;;;;;;;1769410;81;26237;-81
2022/10/15 05:10:12;;;;;;;22.57;15.90;;;;;;;;;;1743498;81;26892;-80
2022/10/15 05:12:42;;;;;;;17.70;15.80;;;;;;;;;;1802522;79;26223;-80
2022/10/15 05:15:11;;;;;;;19.67;16.27;;;;;;;;;;1802288;79;26310;-80
2022/10/15 05:17:40;;;;;;;16.77;14.97;;;;;;;;;;1770908;81;26225;-80
2022/10/15 05:20:09;;;;;;;18.33;15.20;;;;;;;;;;1802408;79;26235;-80
2022/10/15 05:22:38;;;;;;;21.73;15.73;;;;;;;;;;1768044;81;27118;-80
2022/10/15 05:25:09;;;;;;;22.20;17.07;;;;;;;;;;1802246;79;26293;-80
2022/10/15 05:27:38;;;;;;;17.73;15.60;;;;;;;;;;1765731;81;26225;-80
2022/10/15 05:30:09;;;;;;;19.97;15.57;;;;;;;;;;1743382;81;26335;-80
2022/10/15 05:32:37;;;;;;;19.13;15.43;;;;;;;;;;1802403;79;26246;-80
2022/10/15 05:35:07;;;;;;;19.97;15.87;;;;;;;;;;1800928;79;26307;-80
2022/10/15 05:37:36;;;;;;;17.27;15.43;;;;;;;;;;1771097;81;26291;-79
2022/10/15 05:40:06;;;;;;;22.43;16.27;;;;;;;;;;1802428;79;27107;-80
2022/10/15 05:42:36;;;;;;;23.40;15.23;;;;;;;;;;1771048;81;26300;-80
2022/10/15 05:45:05;;;;;;;18.33;15.07;;;;;;;;;;1802437;79;26327;-80
2022/10/15 05:47:37;;;;;;;19.70;15.00;;;;;;;;;;1771083;81;26328;-79
2022/10/15 05:50:08;;;;;;;22.67;14.37;;;;;;;;;;1802403;79;26311;-79
2022/10/15 05:52:36;;;;;;;19.20;13.90;;;;;;;;;;1771060;81;26351;-79
2022/10/15 05:55:06;;;;;;;19.93;15.10;;;;;;;;;;1722194;81;26234;-79
2022/10/15 05:57:34;;;;;;;17.53;14.63;;;;;;;;;;1802263;79;26289;-80
2022/10/15 06:00:03;;;;;;;17.03;14.33;;;;;;;;;;1801665;79;26293;-80
2022/10/15 06:02:32;;;;;;;16.33;14.00;;;;;;;;;;1767812;81;26222;-79
2022/10/15 06:05:00;;;;;;;18.83;15.03;;;;;;;;;;1802642;79;26238;-80
2022/10/15 06:07:31;;;;;;;22.43;16.50;;;;;;;;;;1769188;81;26289;-80
2022/10/15 06:09:59;;;;;;;18.87;15.17;;;;;;;;;;1743197;81;26308;-80
2022/10/15 06:12:28;;;;;;;24.93;15.73;;;;;;;;;;1802452;79;26297;-80
2022/10/15 06:14:56;;;;;;;24.30;15.80;;;;;;;;;;1800727;79;27048;-79
2022/10/15 06:17:25;;;;;;;19.53;16.40;;;;;;;;;;1771044;81;26250;-80
2022/10/15 06:19:53;;;;;;;25.60;16.53;;;;;;;;;;1743373;81;26280;-80
2022/10/15 06:22:22;;;;;;;19.50;15.37;;;;;;;;;;1743269;81;26241;-79
2022/10/15 06:24:52;;;;;;;20.33;16.20;;;;;;;;;;1802659;79;26239;-79
2022/10/15 06:27:20;;;;;;;19.67;16.23;;;;;;;;;;1767915;81;26303;-79
2022/10/15 06:29:49;;;;;;;21.63;15.90;;;;;;;;;;1745224;81;26225;-79
2022/10/15 06:32:18;;;;;;;25.17;16.80;;;;;;;;;;1802461;79;26234;-79
2022/10/15 06:34:46;;;;;;;20.07;16.67;;;;;;;;;;1767601;79;26238;-78
2022/10/15 06:37:15;;;;;;;21.80;16.80;;;;;;;;;;1768214;80;26371;-79
2022/10/15 06:39:45;;;;;;;21.20;17.40;;;;;;;;;;1743887;81;26288;-79
2022/10/15 06:42:14;;;;;;;18.03;16.17;;;;;;;;;;1802277;79;26231;-78
2022/10/15 06:44:43;;;;;;;19.40;16.53;;;;;;;;;;1770975;81;27082;-78
2022/10/15 06:47:12;;;;;;;22.23;17.03;;;;;;;;;;1802524;79;26235;-79
2022/10/15 06:49:40;;;;;;;20.30;16.87;;;;;;;;;;1777083;79;27110;-79
2022/10/15 06:52:09;;;;;;;20.37;16.37;;;;;;;;;;1771075;81;26245;-79
2022/10/15 06:54:38;;;;;;;21.20;15.23;;;;;;;;;;1744098;81;26296;-79
2022/10/15 06:57:07;;;;;;;20.20;16.57;;;;;;;;;;1743612;81;26306;-80
2022/10/15 06:59:36;;;;;;;20.63;16.60;;;;;;;;;;1802428;79;26289;-79
2022/10/15 07:02:04;;;;;;;17.93;16.10;;;;;;;;;;1767813;81;26222;-79
2022/10/15 07:04:32;;;;;;;19.00;15.77;;;;;;;;;;1715691;81;26340;-79
2022/10/15 07:07:01;;;;;;;20.13;15.80;;;;;;;;;;1749910;79;26251;-79
2022/10/15 07:09:29;;;;;;;17.23;15.40;;;;;;;;;;1801544;79;27020;-79
2022/10/15 07:11:58;;;;;;;17.83;15.37;;;;;;;;;;1743135;81;26241;-79
2022/10/15 07:14:26;;;;;;;19.80;15.43;;;;;;;;;;1802257;79;26243;-79
2022/10/15 07:16:55;;;;;;;16.30;14.60;;;;;;;;;;1771122;81;26246;-79
2022/10/15 07:19:23;;;;;;;17.23;15.50;;;;;;;;;;1802723;79;26297;-79
2022/10/15 07:21:51;;;;;;;16.73;14.40;;;;;;;;;;1802478;79;26354;-78
2022/10/15 07:24:20;;;;;;;14.53;13.43;;;;;;;;;;1767881;81;26222;-78
2022/10/15 07:26:49;;;;;;;18.60;14.77;;;;;;;;;;1802671;79;26231;-79
2022/10/15 07:29:18;;;;;;;14.23;13.00;;;;;;;;;;1771121;81;26231;-79
2022/10/15 07:31:47;;;;;;;16.40;13.07;;;;;;;;;;1802253;79;26826;-79
2022/10/15 07:34:17;;;;;;;12.37;10.93;;;;;;;;;;1771115;81;26239;-78
2022/10/15 07:36:45;;;;;;;13.47;12.23;;;;;;;;;;1715874;81;26644;-79
2022/10/15 07:39:14;;;;;;;12.37;11.27;;;;;;;;;;1772480;79;27033;-79
2022/10/15 07:41:42;;;;;;;11.87;11.00;;;;;;;;;;1801550;79;26247;-79
2022/10/15 07:44:11;;;;;;;12.03;11.23;;;;;;;;;;1801847;79;26244;-79
2022/10/15 07:46:41;;;;;;;11.10;10.50;;;;;;;;;;1801355;79;26289;-77
2022/10/15 07:49:10;;;;;;;11.70;10.90;;;;;;;;;;1802240;79;26349;-79
2022/10/15 07:51:38;;;;;;;11.37;10.83;;;;;;;;;;1800770;79;26366;-79
2022/10/15 07:54:07;;;;;;;11.80;10.90;;;;;;;;;;1770158;81;26234;-79
2022/10/15 07:56:36;;;;;;;12.33;11.47;;;;;;;;;;1802225;79;26247;-78
2022/10/15 07:59:07;;;;;;;11.53;10.83;;;;;;;;;;1802259;79;26231;-78
2022/10/15 08:01:37;;;;;;;10.73;10.13;;;;;;;;;;1770980;81;26250;-78
2022/10/15 08:04:05;;;;;;;10.50;10.00;;;;;;;;;;1802273;79;26708;-78
2022/10/15 08:06:34;;;;;;;11.50;10.87;;;;;;;;;;1769756;81;26300;-79
2022/10/15 08:09:04;;;;;;;12.00;11.20;;;;;;;;;;1802558;79;26235;-77
2022/10/15 08:11:33;;;;;;;11.67;10.97;;;;;;;;;;1771304;81;26257;-78
2022/10/15 08:14:02;;;;;;;11.47;10.67;;;;;;;;;;1802700;79;26716;-79
2022/10/15 08:16:31;;;;;;;11.50;10.90;;;;;;;;;;1770062;81;26249;-80
2022/10/15 08:19:00;;;;;;;11.10;10.60;;;;;;;;;;1802792;79;26235;-79
2022/10/15 08:21:28;;;;;;;11.47;10.80;;;;;;;;;;1771324;81;26296;-79
2022/10/15 08:23:57;;;;;;;11.40;10.90;;;;;;;;;;1745007;81;26363;-79
2022/10/15 08:26:29;;;;;;;11.30;10.80;;;;;;;;;;1800215;79;26430;-78
2022/10/15 08:28:58;;;;;;;11.40;10.90;;;;;;;;;;1769077;81;26857;-78
2022/10/15 08:31:26;;;;;;;11.20;10.80;;;;;;;;;;1775029;79;26287;-80
2022/10/15 08:33:55;;;;;;;11.13;10.60;;;;;;;;;;1798907;79;26796;-79
2022/10/15 08:36:24;;;;;;;11.47;10.57;;;;;;;;;;1769450;79;26507;-79
2022/10/15 08:38:53;;;;;;;11.53;10.93;;;;;;;;;;1743281;81;26363;-79
2022/10/15 08:41:24;;;;;;;11.53;11.00;;;;;;;;;;1720075;81;26373;-79
2022/10/15 08:43:53;;;;;;;11.37;10.67;;;;;;;;;;1800894;79;27100;-79
2022/10/15 08:46:24;;;;;;;11.17;10.67;;;;;;;;;;1798843;79;26294;-79
2022/10/15 08:48:55;;;;;;;11.77;11.17;;;;;;;;;;1745507;81;26238;-78
2022/10/15 08:51:25;;;;;;;11.80;11.10;;;;;;;;;;1743948;81;27043;-80
2022/10/15 08:53:56;;;;;;;11.10;10.67;;;;;;;;;;1802870;79;26319;-80
2022/10/15 08:56:26;;;;;;;12.03;11.20;;;;;;;;;;1771189;81;26238;-79
2022/10/15 08:58:56;;;;;;;11.63;11.03;;;;;;;;;;1771414;81;26234;-80
2022/10/15 09:01:26;;;;;;;11.70;11.20;;;;;;;;;;1801853;79;26643;-79
2022/10/15 09:04:00;;;;;;;11.43;11.00;;;;;;;;;;1770523;80;26366;-79
2022/10/15 09:06:30;;;;;;;12.20;11.40;;;;;;;;;;1769134;81;26296;-79
2022/10/15 09:09:00;;;;;;;12.23;11.33;;;;;;;;;;1740826;81;26281;-78
2022/10/15 09:11:33;;;;;;;12.33;11.73;;;;;;;;;;1735463;81;26480;-79
2022/10/15 09:14:02;;;;;;;12.50;11.80;;;;;;;;;;1769571;80;26817;-79
2022/10/15 09:16:32;;;;;;;12.23;11.43;;;;;;;;;;1800235;79;26357;-80
2022/10/15 09:19:03;;;;;;;11.87;11.20;;;;;;;;;;1769342;81;26386;-80
2022/10/15 09:21:33;;;;;;;11.67;10.97;;;;;;;;;;1801627;79;26974;-79
2022/10/15 09:24:02;;;;;;;11.83;11.13;;;;;;;;;;1798916;79;26369;-79
2022/10/15 09:26:32;;;;;;;12.33;11.73;;;;;;;;;;1769308;81;26745;-79
2022/10/15 09:29:03;;;;;;;12.17;11.63;;;;;;;;;;1768791;81;26712;-80
2022/10/15 09:31:37;;;;;;;12.30;11.77;;;;;;;;;;1768581;81;26516;-80
2022/10/15 09:34:07;;;;;;;11.80;11.40;;;;;;;;;;1770689;79;26621;-79
2022/10/15 09:36:38;;;;;;;12.20;11.60;;;;;;;;;;1741322;80;26297;-78
2022/10/15 09:39:12;;;;;;;12.83;12.20;;;;;;;;;;1775403;79;26297;-79
2022/10/15 09:41:43;;;;;;;12.43;11.73;;;;;;;;;;1770809;80;26869;-79
2022/10/15 09:44:13;;;;;;;12.00;11.40;;;;;;;;;;1742256;81;26355;-79
2022/10/15 09:46:46;;;;;;;11.60;10.90;;;;;;;;;;1798436;79;26298;-80
2022/10/15 09:49:18;;;;;;;11.43;10.73;;;;;;;;;;1769041;81;26444;-80
2022/10/15 09:51:51;;;;;;;12.10;11.30;;;;;;;;;;1800099;79;26293;-80
2022/10/15 09:54:21;;;;;;;12.27;11.43;;;;;;;;;;1772930;80;26311;-80
2022/10/15 09:56:52;;;;;;;11.50;10.90;;;;;;;;;;1774458;79;26933;-80
2022/10/15 09:59:22;;;;;;;12.67;11.70;;;;;;;;;;1768587;81;26429;-81
2022/10/15 10:01:58;;;;;;;12.40;11.60;;;;;;;;;;1799934;79;26279;-80
2022/10/15 10:04:27;;;;;;;12.03;11.37;;;;;;;;;;1768611;81;26285;-80
2022/10/15 10:06:57;;;;;;;12.43;11.77;;;;;;;;;;1799667;79;26291;-80
2022/10/15 10:09:29;;;;;;;11.87;10.90;;;;;;;;;;1768759;81;26290;-79
2022/10/15 10:11:58;;;;;;;11.40;10.63;;;;;;;;;;1774466;79;24218;-80
2022/10/15 10:14:28;;;;;;;12.20;11.00;;;;;;;;;;1742635;81;26276;-79
2022/10/15 10:17:05;;;;;;;12.17;11.43;;;;;;;;;;1773024;79;26291;-80
2022/10/15 10:19:33;;;;;;;11.67;10.97;;;;;;;;;;1774698;79;26652;-79
2022/10/15 10:22:08;;;;;;;10.63;9.83;;;;;;;;;;1769259;81;26288;-80
2022/10/15 10:24:39;;;;;;;11.30;10.37;;;;;;;;;;1799446;79;26289;-80
2022/10/15 10:27:15;;;;;;;10.90;10.30;;;;;;;;;;1801113;79;26211;-80
2022/10/15 10:29:46;;;;;;;12.00;11.30;;;;;;;;;;1737871;81;24965;-77
2022/10/15 10:32:19;;;;;;;11.90;11.00;;;;;;;;;;1761700;81;24236;-78
2022/10/15 10:34:48;;;;;;;11.93;11.23;;;;;;;;;;1735591;81;26548;-85
2022/10/15 10:37:16;;;;;;;11.20;10.50;;;;;;;;;;1761697;81;26286;-82
2022/10/15 10:39:46;;;;;;;12.17;11.27;;;;;;;;;;1735735;81;26337;-81
2022/10/15 10:42:28;;;;;;;11.37;10.60;;;;;;;;;;1759007;80;26775;-82
2022/10/15 10:44:58;;;;;;;11.10;10.50;;;;;;;;;;1799774;79;26889;-82
2022/10/15 10:47:27;;;;;;;10.43;9.93;;;;;;;;;;1794317;78;26854;-80
2022/10/15 10:49:57;;;;;;;10.20;9.50;;;;;;;;;;1799030;79;26991;-83
2022/10/15 10:52:29;;;;;;;10.60;9.73;;;;;;;;;;1743422;81;26301;-80
2022/10/15 10:54:59;;;;;;;11.10;10.30;;;;;;;;;;1802241;79;26326;-79
2022/10/15 10:57:30;;;;;;;10.50;9.83;;;;;;;;;;1767605;81;26238;-80
2022/10/15 11:00:04;;;;;;;10.63;9.93;;;;;;;;;;1802457;79;26243;-79
2022/10/15 11:02:34;;;;;;;10.70;9.83;;;;;;;;;;1764071;81;26233;-78
2022/10/15 11:05:03;;;;;;;10.80;10.00;;;;;;;;;;1771095;80;26232;-79
2022/10/15 11:07:33;;;;;;;10.97;10.27;;;;;;;;;;1800004;79;27047;-80
2022/10/15 11:10:04;;;;;;;10.80;10.03;;;;;;;;;;1737815;81;26219;-81
2022/10/15 11:12:37;;;;;;;10.20;9.50;;;;;;;;;;1737705;81;25063;-82
2022/10/15 11:15:10;;;;;;;11.10;10.00;;;;;;;;;;1763897;80;26223;-81
2022/10/15 11:17:42;;;;;;;10.97;10.17;;;;;;;;;;1772844;80;26794;-80
2022/10/15 11:20:12;;;;;;;10.53;9.90;;;;;;;;;;1744208;81;26224;-81
2022/10/15 11:22:46;;;;;;;10.17;9.57;;;;;;;;;;1770814;81;26812;-81
2022/10/15 11:25:18;;;;;;;11.43;10.53;;;;;;;;;;1771084;81;26247;-81
2022/10/15 11:27:57;;;;;;;11.33;10.43;;;;;;;;;;1745991;81;26681;-81
2022/10/15 11:30:29;;;;;;;9.90;9.30;;;;;;;;;;1744453;81;26240;-81
2022/10/15 11:33:00;;;;;;;10.27;9.50;;;;;;;;;;1768124;81;26240;-81
2022/10/15 11:35:32;;;;;;;11.13;10.23;;;;;;;;;;1768170;81;26294;-81
2022/10/15 11:38:12;;;;;;;10.70;9.97;;;;;;;;;;1777601;79;26353;-81
2022/10/15 11:40:43;;;;;;;11.20;10.50;;;;;;;;;;1737708;81;24237;-81
2022/10/15 11:43:14;;;;;;;11.17;10.37;;;;;;;;;;1772600;80;26244;-81
2022/10/15 11:45:47;;;;;;;11.73;10.67;;;;;;;;;;1771035;81;26238;-81
2022/10/15 11:48:20;;;;;;;11.47;10.37;;;;;;;;;;1771124;81;26840;-81
2022/10/15 11:50:50;;;;;;;11.30;10.60;;;;;;;;;;1771880;79;26345;-82
2022/10/15 11:53:39;;;;;;;10.77;9.77;;;;;;;;;;1744805;81;26255;-81
2022/10/15 11:56:10;;;;;;;11.67;10.77;;;;;;;;;;1770859;80;26246;-81
2022/10/15 11:58:41;;;;;;;10.30;9.70;;;;;;;;;;1746450;81;26662;-81
2022/10/15 12:01:13;;;;;;;11.37;10.77;;;;;;;;;;1802408;79;26247;-82
2022/10/15 12:03:43;;;;;;;11.87;11.17;;;;;;;;;;1770614;81;26551;-89
2022/10/15 12:06:14;;;;;;;11.43;10.63;;;;;;;;;;1740772;81;26272;-84
2022/10/15 12:08:46;;;;;;;11.40;10.63;;;;;;;;;;1800614;79;26680;-83
2022/10/15 12:11:18;;;;;;;11.20;10.40;;;;;;;;;;1771291;81;26232;-88
2022/10/15 12:13:50;;;;;;;11.57;10.63;;;;;;;;;;1771490;81;26736;-87
2022/10/15 12:16:23;;;;;;;12.93;12.03;;;;;;;;;;1800632;79;26295;-88
2022/10/15 12:18:57;;;;;;;11.30;10.43;;;;;;;;;;1798554;79;26292;-84
2022/10/15 12:21:34;;;;;;;11.17;10.27;;;;;;;;;;1767416;80;26271;-85
2022/10/15 12:24:09;;;;;;;11.63;10.87;;;;;;;;;;1741930;81;26275;-84
2022/10/15 12:26:38;;;;;;;12.03;11.13;;;;;;;;;;1776178;79;26363;-87
2022/10/15 12:29:14;;;;;;;11.47;10.80;;;;;;;;;;1770167;81;26390;-90
2022/10/15 12:32:01;;;;;;;10.93;10.10;;;;;;;;;;1769335;80;26303;-87
2022/10/15 12:34:33;;;;;;;11.77;10.80;;;;;;;;;;1769790;80;24276;-84
2022/10/15 12:37:08;;;;;;;11.90;10.70;;;;;;;;;;1801185;79;26281;-86
2022/10/15 12:39:43;;;;;;;11.53;10.63;;;;;;;;;;1767447;80;26464;-85
2022/10/15 12:42:21;;;;;;;11.43;10.43;;;;;;;;;;1768627;81;26299;-84
2022/10/15 12:44:50;;;;;;;12.30;11.50;;;;;;;;;;1774334;79;24215;-81
2022/10/15 12:47:36;;;;;;;13.83;12.63;;;;;;;;;;1768742;81;24217;-82
2022/10/15 12:50:06;;;;;;;12.67;11.37;;;;;;;;;;1767575;79;26328;-81
2022/10/15 12:53:01;;;;;;;11.70;10.90;;;;;;;;;;1799954;79;24226;-82
2022/10/15 12:55:31;;;;;;;13.20;12.20;;;;;;;;;;1770339;80;26832;-82
2022/10/15 12:58:03;;;;;;;13.40;12.03;;;;;;;;;;1742882;80;26378;-82
2022/10/15 13:00:33;;;;;;;12.53;11.63;;;;;;;;;;1799787;79;24289;-81
2022/10/15 13:03:19;;;;;;;12.70;11.60;;;;;;;;;;1768844;81;26291;-82
2022/10/15 13:05:48;;;;;;;13.50;11.70;;;;;;;;;;1800043;79;26355;-82
2022/10/15 13:08:18;;;;;;;12.90;11.70;;;;;;;;;;1798349;79;26284;-81
2022/10/15 13:10:49;;;;;;;12.80;11.60;;;;;;;;;;1768854;81;26451;-81
2022/10/15 13:13:20;;;;;;;12.00;11.20;;;;;;;;;;1799951;79;26294;-80
2022/10/15 13:15:51;;;;;;;12.20;11.37;;;;;;;;;;1768984;81;24226;-81
2022/10/15 13:18:21;;;;;;;12.33;11.47;;;;;;;;;;1774025;79;26325;-80
2022/10/15 13:20:53;;;;;;;12.30;11.47;;;;;;;;;;1765487;81;26287;-80
2022/10/15 13:23:24;;;;;;;12.60;11.60;;;;;;;;;;1777310;79;26282;-80
2022/10/15 13:25:52;;;;;;;13.10;12.00;;;;;;;;;;1771064;81;24240;-80
2022/10/15 13:28:28;;;;;;;13.00;12.10;;;;;;;;;;1744065;81;26761;-80
2022/10/15 13:30:57;;;;;;;13.90;12.90;;;;;;;;;;1799682;79;26348;-80
2022/10/15 13:33:28;;;;;;;14.10;12.80;;;;;;;;;;1768397;81;26287;-83
2022/10/15 13:35:59;;;;;;;13.27;12.03;;;;;;;;;;1799931;79;24857;-82
2022/10/15 13:38:27;;;;;;;13.40;12.30;;;;;;;;;;1769709;80;24229;-81
2022/10/15 13:41:15;;;;;;;13.03;12.13;;;;;;;;;;1798579;79;26676;-81
2022/10/15 13:44:02;;;;;;;15.30;13.70;;;;;;;;;;1767672;79;26333;-82
2022/10/15 13:46:49;;;;;;;14.80;13.60;;;;;;;;;;1799013;78;24536;-80
2022/10/15 13:49:36;;;;;;;13.77;12.67;;;;;;;;;;1767827;79;24336;-83
2022/10/15 13:52:22;;;;;;;14.07;12.77;;;;;;;;;;1799285;78;24325;-81
2022/10/15 13:55:17;;;;;;;13.43;12.43;;;;;;;;;;1763502;81;26385;-81
2022/10/15 13:58:13;;;;;;;12.63;11.63;;;;;;;;;;1799673;78;26345;-80
2022/10/15 14:01:09;;;;;;;14.17;12.90;;;;;;;;;;1768979;81;24254;-80
2022/10/15 14:04:05;;;;;;;12.73;11.70;;;;;;;;;;1800832;79;26293;-80
2022/10/15 14:07:01;;;;;;;13.20;12.10;;;;;;;;;;1803526;79;24298;-79
2022/10/15 14:09:57;;;;;;;13.43;12.23;;;;;;;;;;1803176;79;26669;-80
2022/10/15 14:12:53;;;;;;;12.40;11.30;;;;;;;;;;1806025;79;24277;-80
2022/10/15 14:15:43;;;;;;;12.97;11.87;;;;;;;;;;1841792;78;26317;-82
2022/10/15 14:18:34;;;;;;;12.70;11.57;;;;;;;;;;1843350;78;26269;-80
2022/10/15 14:21:27;;;;;;;11.27;10.20;;;;;;;;;;1820694;77;24207;-81
2022/10/15 14:24:13;;;;;;;12.27;11.03;;;;;;;;;;1845223;77;24155;-82
2022/10/15 14:27:22;;;;;;;15.90;11.53;;;;;;;;;;1843236;77;24147;-81
2022/10/15 14:30:15;;;;;;;13.63;12.37;;;;;;;;;;1845110;78;26268;-84
2022/10/15 14:33:02;;;;;;;11.63;10.43;;;;;;;;;;1775078;81;26305;-83
2022/10/15 14:35:50;;;;;;;12.17;10.90;;;;;;;;;;1809280;78;26303;-83
2022/10/15 14:38:36;;;;;;;11.57;10.43;;;;;;;;;;1835002;78;24140;-84
2022/10/15 14:41:25;;;;;;;11.43;10.30;;;;;;;;;;1818322;77;24211;-85
2022/10/15 14:44:20;;;;;;;11.40;10.43;;;;;;;;;;1818410;77;24175;-84